sensor_id;sensor_type;location;lat;lon;timestamp;temperature;humidity
8248;DHT22;4164;49.844;8.830;2023-03-13T00:01:58;10.60;99.90
8248;DHT22;4164;49.844;8.830;2023-03-13T00:04:25;10.60;99.90
8248;DHT22;4164;49.844;8.830;2023-03-13T00:06:51;10.70;99.90
8248;DHT22;4164;49.844;8.830;2023-03-13T00:09:16;10.60;99.90
8248;DHT22;4164;49.844;8.830;2023-03-13T00:11:43;10.60;99.90
8248;DHT22;4164;49.844;8.830;2023-03-13T00:14:10;10.60;99.90
8248;DHT22;4164;49.844;8.830;2023-03-13T00:16:35;10.60;99.90
8248;DHT22;4164;49.844;8.830;2023-03-13T00:19:03;10.70;99.90
8248;DHT22;4164;49.844;8.830;2023-03-13T00:21:30;10.70;99.90
8248;DHT22;4164;49.844;8.830;2023-03-13T00:23:57;10.70;99.90
8248;DHT22;4164;49.844;8.830;2023-03-13T00:26:25;10.80;99.90
8248;DHT22;4164;49.844;8.830;2023-03-13T00:28:51;10.80;99.90
8248;DHT22;4164;49.844;8.830;2023-03-13T00:31:28;10.80;99.90
8248;DHT22;4164;49.844;8.830;2023-03-13T00:33:57;10.80;99.90
8248;DHT22;4164;49.844;8.830;2023-03-13T00:36:28;10.80;99.90
8248;DHT22;4164;49.844;8.830;2023-03-13T00:38:55;10.80;99.90
8248;DHT22;4164;49.844;8.830;2023-03-13T00:41:23;10.80;99.90
8248;DHT22;4164;49.844;8.830;2023-03-13T00:43:49;10.80;99.90
8248;DHT22;4164;49.844;8.830;2023-03-13T00:46:17;10.80;99.90
8248;DHT22;4164;49.844;8.830;2023-03-13T00:48:43;10.90;99.90
8248;DHT22;4164;49.844;8.830;2023-03-13T00:51:09;10.80;99.90
8248;DHT22;4164;49.844;8.830;2023-03-13T00:53:35;10.80;99.90
8248;DHT22;4164;49.844;8.830;2023-03-13T00:56:12;10.90;99.90
8248;DHT22;4164;49.844;8.830;2023-03-13T00:58:39;10.90;99.90
8248;DHT22;4164;49.844;8.830;2023-03-13T01:01:42;10.90;99.90
8248;DHT22;4164;49.844;8.830;2023-03-13T01:04:06;10.90;99.90
8248;DHT22;4164;49.844;8.830;2023-03-13T01:06:34;10.90;99.90
8248;DHT22;4164;49.844;8.830;2023-03-13T01:09:01;10.90;99.90
8248;DHT22;4164;49.844;8.830;2023-03-13T01:11:29;10.90;99.90
8248;DHT22;4164;49.844;8.830;2023-03-13T01:13:57;10.90;99.90
8248;DHT22;4164;49.844;8.830;2023-03-13T01:16:24;10.90;99.90
8248;DHT22;4164;49.844;8.830;2023-03-13T01:18:52;10.90;99.90
8248;DHT22;4164;49.844;8.830;2023-03-13T01:21:19;10.90;99.90
8248;DHT22;4164;49.844;8.830;2023-03-13T01:23:46;10.90;99.90
8248;DHT22;4164;49.844;8.830;2023-03-13T01:26:12;10.90;99.90
8248;DHT22;4164;49.844;8.830;2023-03-13T01:28:38;11.00;99.90
8248;DHT22;4164;49.844;8.830;2023-03-13T01:31:18;11.00;99.90
8248;DHT22;4164;49.844;8.830;2023-03-13T01:33:45;11.00;99.90
8248;DHT22;4164;49.844;8.830;2023-03-13T01:36:11;11.10;99.90
8248;DHT22;4164;49.844;8.830;2023-03-13T01:38:37;11.10;99.90
8248;DHT22;4164;49.844;8.830;2023-03-13T01:41:04;11.10;99.90
8248;DHT22;4164;49.844;8.830;2023-03-13T01:43:33;11.20;99.90
8248;DHT22;4164;49.844;8.830;2023-03-13T01:51:18;11.30;99.90
8248;DHT22;4164;49.844;8.830;2023-03-13T01:53:49;11.20;99.90
8248;DHT22;4164;49.844;8.830;2023-03-13T01:56:33;11.20;99.90
8248;DHT22;4164;49.844;8.830;2023-03-13T01:59:02;11.20;99.90
8248;DHT22;4164;49.844;8.830;2023-03-13T02:01:28;11.20;99.90
8248;DHT22;4164;49.844;8.830;2023-03-13T02:03:55;11.30;99.90
8248;DHT22;4164;49.844;8.830;2023-03-13T02:06:22;11.30;99.90
8248;DHT22;4164;49.844;8.830;2023-03-13T02:08:54;11.30;99.90
8248;DHT22;4164;49.844;8.830;2023-03-13T02:11:32;11.30;99.90
8248;DHT22;4164;49.844;8.830;2023-03-13T02:13:59;11.30;99.90
8248;DHT22;4164;49.844;8.830;2023-03-13T02:16:26;11.30;99.90
8248;DHT22;4164;49.844;8.830;2023-03-13T02:18:52;11.30;99.90
8248;DHT22;4164;49.844;8.830;2023-03-13T02:21:40;11.30;99.90
8248;DHT22;4164;49.844;8.830;2023-03-13T02:24:13;11.30;99.90
8248;DHT22;4164;49.844;8.830;2023-03-13T02:26:41;11.30;99.90
8248;DHT22;4164;49.844;8.830;2023-03-13T02:29:08;11.30;99.90
8248;DHT22;4164;49.844;8.830;2023-03-13T02:31:45;11.30;99.90
8248;DHT22;4164;49.844;8.830;2023-03-13T02:34:16;11.30;99.90
8248;DHT22;4164;49.844;8.830;2023-03-13T02:36:44;11.20;99.90
8248;DHT22;4164;49.844;8.830;2023-03-13T02:39:12;11.20;99.90
8248;DHT22;4164;49.844;8.830;2023-03-13T02:41:39;11.10;99.90
8248;DHT22;4164;49.844;8.830;2023-03-13T02:44:06;11.10;99.90
8248;DHT22;4164;49.844;8.830;2023-03-13T02:46:43;11.10;99.90
8248;DHT22;4164;49.844;8.830;2023-03-13T02:49:27;11.10;99.90
8248;DHT22;4164;49.844;8.830;2023-03-13T02:51:58;11.20;99.90
8248;DHT22;4164;49.844;8.830;2023-03-13T02:54:31;11.10;99.90
8248;DHT22;4164;49.844;8.830;2023-03-13T02:57:00;11.00;99.90
8248;DHT22;4164;49.844;8.830;2023-03-13T02:59:26;10.90;99.90
8248;DHT22;4164;49.844;8.830;2023-03-13T03:01:51;10.80;99.90
8248;DHT22;4164;49.844;8.830;2023-03-13T03:04:22;10.60;99.90
8248;DHT22;4164;49.844;8.830;2023-03-13T03:06:48;10.40;99.90
8248;DHT22;4164;49.844;8.830;2023-03-13T03:09:14;10.30;99.90
8248;DHT22;4164;49.844;8.830;2023-03-13T03:11:43;10.20;99.90
8248;DHT22;4164;49.844;8.830;2023-03-13T03:14:09;10.20;99.90
8248;DHT22;4164;49.844;8.830;2023-03-13T03:16:36;10.20;99.90
8248;DHT22;4164;49.844;8.830;2023-03-13T03:19:01;10.20;99.90
8248;DHT22;4164;49.844;8.830;2023-03-13T03:21:27;10.10;99.90
8248;DHT22;4164;49.844;8.830;2023-03-13T03:23:53;10.00;99.90
8248;DHT22;4164;49.844;8.830;2023-03-13T03:26:18;9.90;99.90
8248;DHT22;4164;49.844;8.830;2023-03-13T03:28:44;9.80;99.90
8248;DHT22;4164;49.844;8.830;2023-03-13T03:31:12;9.80;99.90
8248;DHT22;4164;49.844;8.830;2023-03-13T03:33:38;9.90;99.90
8248;DHT22;4164;49.844;8.830;2023-03-13T03:36:06;9.90;99.90
8248;DHT22;4164;49.844;8.830;2023-03-13T03:38:32;9.90;99.90
8248;DHT22;4164;49.844;8.830;2023-03-13T03:40:58;10.00;99.90
8248;DHT22;4164;49.844;8.830;2023-03-13T03:43:24;10.00;99.90
8248;DHT22;4164;49.844;8.830;2023-03-13T03:45:50;10.10;99.90
8248;DHT22;4164;49.844;8.830;2023-03-13T03:48:16;10.10;99.90
8248;DHT22;4164;49.844;8.830;2023-03-13T03:50:42;10.10;99.90
8248;DHT22;4164;49.844;8.830;2023-03-13T03:53:08;10.00;99.90
8248;DHT22;4164;49.844;8.830;2023-03-13T03:55:34;10.00;99.90
8248;DHT22;4164;49.844;8.830;2023-03-13T03:58:00;9.90;99.90
8248;DHT22;4164;49.844;8.830;2023-03-13T04:00:25;9.70;99.90
8248;DHT22;4164;49.844;8.830;2023-03-13T04:02:52;9.70;99.90
8248;DHT22;4164;49.844;8.830;2023-03-13T04:05:18;9.60;99.90
8248;DHT22;4164;49.844;8.830;2023-03-13T04:07:44;9.70;99.90
8248;DHT22;4164;49.844;8.830;2023-03-13T04:10:10;9.60;99.90
8248;DHT22;4164;49.844;8.830;2023-03-13T04:12:35;9.60;99.90
8248;DHT22;4164;49.844;8.830;2023-03-13T04:15:01;9.50;99.90
8248;DHT22;4164;49.844;8.830;2023-03-13T04:17:27;9.50;99.90
8248;DHT22;4164;49.844;8.830;2023-03-13T04:19:52;9.50;99.90
8248;DHT22;4164;49.844;8.830;2023-03-13T04:22:18;9.50;99.90
8248;DHT22;4164;49.844;8.830;2023-03-13T04:24:43;9.50;99.90
8248;DHT22;4164;49.844;8.830;2023-03-13T04:27:09;9.50;99.90
8248;DHT22;4164;49.844;8.830;2023-03-13T04:29:34;9.40;99.90
8248;DHT22;4164;49.844;8.830;2023-03-13T04:32:00;9.50;99.90
8248;DHT22;4164;49.844;8.830;2023-03-13T04:34:26;9.60;99.90
8248;DHT22;4164;49.844;8.830;2023-03-13T04:36:52;9.60;99.90
8248;DHT22;4164;49.844;8.830;2023-03-13T04:39:17;9.60;99.90
8248;DHT22;4164;49.844;8.830;2023-03-13T04:41:43;9.70;99.90
8248;DHT22;4164;49.844;8.830;2023-03-13T04:44:08;9.80;99.90
8248;DHT22;4164;49.844;8.830;2023-03-13T04:46:34;9.80;99.90
8248;DHT22;4164;49.844;8.830;2023-03-13T04:48:59;9.80;99.90
8248;DHT22;4164;49.844;8.830;2023-03-13T04:51:25;9.80;99.90
8248;DHT22;4164;49.844;8.830;2023-03-13T04:53:50;9.80;99.90
8248;DHT22;4164;49.844;8.830;2023-03-13T04:56:22;9.90;99.90
8248;DHT22;4164;49.844;8.830;2023-03-13T04:58:48;9.90;99.90
8248;DHT22;4164;49.844;8.830;2023-03-13T05:01:14;10.00;99.90
8248;DHT22;4164;49.844;8.830;2023-03-13T05:03:39;10.00;99.90
8248;DHT22;4164;49.844;8.830;2023-03-13T05:06:05;10.10;99.90
8248;DHT22;4164;49.844;8.830;2023-03-13T05:08:30;10.10;99.90
8248;DHT22;4164;49.844;8.830;2023-03-13T05:10:56;10.20;99.90
8248;DHT22;4164;49.844;8.830;2023-03-13T05:13:22;10.20;99.90
8248;DHT22;4164;49.844;8.830;2023-03-13T05:15:47;10.30;99.90
8248;DHT22;4164;49.844;8.830;2023-03-13T05:18:13;10.30;99.90
8248;DHT22;4164;49.844;8.830;2023-03-13T05:20:38;10.40;99.90
8248;DHT22;4164;49.844;8.830;2023-03-13T05:23:04;10.40;99.90
8248;DHT22;4164;49.844;8.830;2023-03-13T05:25:29;10.50;99.90
8248;DHT22;4164;49.844;8.830;2023-03-13T05:27:55;10.50;99.90
8248;DHT22;4164;49.844;8.830;2023-03-13T05:30:20;10.50;99.90
8248;DHT22;4164;49.844;8.830;2023-03-13T05:32:46;10.60;99.90
8248;DHT22;4164;49.844;8.830;2023-03-13T05:35:12;10.60;99.90
8248;DHT22;4164;49.844;8.830;2023-03-13T05:37:37;10.60;99.90
8248;DHT22;4164;49.844;8.830;2023-03-13T05:40:03;10.60;99.90
8248;DHT22;4164;49.844;8.830;2023-03-13T05:42:29;10.70;99.90
8248;DHT22;4164;49.844;8.830;2023-03-13T05:44:54;10.80;99.90
8248;DHT22;4164;49.844;8.830;2023-03-13T05:47:20;10.80;99.90
8248;DHT22;4164;49.844;8.830;2023-03-13T05:49:45;10.80;99.90
8248;DHT22;4164;49.844;8.830;2023-03-13T05:52:11;10.90;99.90
8248;DHT22;4164;49.844;8.830;2023-03-13T05:54:36;10.90;99.90
8248;DHT22;4164;49.844;8.830;2023-03-13T05:57:02;10.90;99.90
8248;DHT22;4164;49.844;8.830;2023-03-13T05:59:28;10.90;99.90
8248;DHT22;4164;49.844;8.830;2023-03-13T06:01:54;11.00;99.90
8248;DHT22;4164;49.844;8.830;2023-03-13T06:04:19;11.00;99.90
8248;DHT22;4164;49.844;8.830;2023-03-13T06:06:45;11.10;99.90
8248;DHT22;4164;49.844;8.830;2023-03-13T06:09:11;11.10;99.90
8248;DHT22;4164;49.844;8.830;2023-03-13T06:11:37;11.10;99.90
8248;DHT22;4164;49.844;8.830;2023-03-13T06:14:02;11.10;99.90
8248;DHT22;4164;49.844;8.830;2023-03-13T06:16:28;11.10;99.90
8248;DHT22;4164;49.844;8.830;2023-03-13T06:18:53;11.10;99.90
8248;DHT22;4164;49.844;8.830;2023-03-13T06:21:19;11.20;99.90
8248;DHT22;4164;49.844;8.830;2023-03-13T06:23:44;11.20;99.90
8248;DHT22;4164;49.844;8.830;2023-03-13T06:26:10;11.20;99.90
8248;DHT22;4164;49.844;8.830;2023-03-13T06:28:36;11.20;99.90
8248;DHT22;4164;49.844;8.830;2023-03-13T06:31:03;11.20;99.90
8248;DHT22;4164;49.844;8.830;2023-03-13T06:33:29;11.30;99.90
8248;DHT22;4164;49.844;8.830;2023-03-13T06:35:56;11.30;99.90
8248;DHT22;4164;49.844;8.830;2023-03-13T06:38:22;11.30;99.90
8248;DHT22;4164;49.844;8.830;2023-03-13T06:40:47;11.40;99.90
8248;DHT22;4164;49.844;8.830;2023-03-13T06:43:13;11.50;99.90
8248;DHT22;4164;49.844;8.830;2023-03-13T06:45:38;11.50;99.90
8248;DHT22;4164;49.844;8.830;2023-03-13T06:48:04;11.50;99.90
8248;DHT22;4164;49.844;8.830;2023-03-13T06:50:29;11.60;99.90
8248;DHT22;4164;49.844;8.830;2023-03-13T06:52:55;11.60;99.90
8248;DHT22;4164;49.844;8.830;2023-03-13T06:55:22;11.60;99.90
8248;DHT22;4164;49.844;8.830;2023-03-13T06:57:51;11.60;99.90
8248;DHT22;4164;49.844;8.830;2023-03-13T07:00:18;11.70;99.90
8248;DHT22;4164;49.844;8.830;2023-03-13T07:02:44;11.70;99.90
8248;DHT22;4164;49.844;8.830;2023-03-13T07:05:09;11.80;99.90
8248;DHT22;4164;49.844;8.830;2023-03-13T07:07:35;11.80;99.90
8248;DHT22;4164;49.844;8.830;2023-03-13T07:10:01;11.80;99.90
8248;DHT22;4164;49.844;8.830;2023-03-13T07:12:26;11.90;99.90
8248;DHT22;4164;49.844;8.830;2023-03-13T07:14:52;11.90;99.90
8248;DHT22;4164;49.844;8.830;2023-03-13T07:17:17;12.10;99.90
8248;DHT22;4164;49.844;8.830;2023-03-13T07:19:43;12.10;99.90
8248;DHT22;4164;49.844;8.830;2023-03-13T07:22:08;12.20;99.90
8248;DHT22;4164;49.844;8.830;2023-03-13T07:24:34;12.10;99.90
8248;DHT22;4164;49.844;8.830;2023-03-13T07:26:59;12.10;99.90
8248;DHT22;4164;49.844;8.830;2023-03-13T07:29:25;12.10;99.90
8248;DHT22;4164;49.844;8.830;2023-03-13T07:31:51;12.10;99.90
8248;DHT22;4164;49.844;8.830;2023-03-13T07:34:16;12.10;99.90
8248;DHT22;4164;49.844;8.830;2023-03-13T07:36:42;12.20;99.90
8248;DHT22;4164;49.844;8.830;2023-03-13T07:39:08;12.20;99.90
8248;DHT22;4164;49.844;8.830;2023-03-13T07:41:33;12.20;99.90
8248;DHT22;4164;49.844;8.830;2023-03-13T07:43:59;12.20;99.90
8248;DHT22;4164;49.844;8.830;2023-03-13T07:46:24;12.30;99.90
8248;DHT22;4164;49.844;8.830;2023-03-13T07:48:50;12.30;99.90
8248;DHT22;4164;49.844;8.830;2023-03-13T07:51:22;12.30;99.90
8248;DHT22;4164;49.844;8.830;2023-03-13T07:53:47;12.30;99.90
8248;DHT22;4164;49.844;8.830;2023-03-13T07:56:18;12.30;99.90
8248;DHT22;4164;49.844;8.830;2023-03-13T07:58:44;12.30;99.90
8248;DHT22;4164;49.844;8.830;2023-03-13T08:01:12;12.30;99.90
8248;DHT22;4164;49.844;8.830;2023-03-13T08:03:38;12.30;99.90
8248;DHT22;4164;49.844;8.830;2023-03-13T08:06:07;12.40;99.90
8248;DHT22;4164;49.844;8.830;2023-03-13T08:08:33;12.30;99.90
8248;DHT22;4164;49.844;8.830;2023-03-13T08:11:03;12.40;99.90
8248;DHT22;4164;49.844;8.830;2023-03-13T08:13:30;12.30;99.90
8248;DHT22;4164;49.844;8.830;2023-03-13T08:18:28;12.30;99.90
8248;DHT22;4164;49.844;8.830;2023-03-13T08:20:53;12.30;99.90
8248;DHT22;4164;49.844;8.830;2023-03-13T08:23:19;12.30;99.90
8248;DHT22;4164;49.844;8.830;2023-03-13T08:25:44;12.30;99.90
8248;DHT22;4164;49.844;8.830;2023-03-13T08:28:10;12.30;99.90
8248;DHT22;4164;49.844;8.830;2023-03-13T08:30:35;12.30;99.90
8248;DHT22;4164;49.844;8.830;2023-03-13T08:33:01;12.40;99.90
8248;DHT22;4164;49.844;8.830;2023-03-13T08:35:28;12.40;99.90
8248;DHT22;4164;49.844;8.830;2023-03-13T08:37:53;12.50;99.90
8248;DHT22;4164;49.844;8.830;2023-03-13T08:40:19;12.40;99.90
8248;DHT22;4164;49.844;8.830;2023-03-13T08:42:44;12.50;99.90
8248;DHT22;4164;49.844;8.830;2023-03-13T08:45:10;12.60;99.90
8248;DHT22;4164;49.844;8.830;2023-03-13T08:47:36;12.80;99.90
8248;DHT22;4164;49.844;8.830;2023-03-13T08:50:02;12.90;99.90
8248;DHT22;4164;49.844;8.830;2023-03-13T08:52:27;13.00;99.90
8248;DHT22;4164;49.844;8.830;2023-03-13T08:54:53;13.10;99.90
8248;DHT22;4164;49.844;8.830;2023-03-13T08:57:19;13.20;99.90
8248;DHT22;4164;49.844;8.830;2023-03-13T08:59:44;13.20;99.90
8248;DHT22;4164;49.844;8.830;2023-03-13T09:02:10;13.20;99.90
8248;DHT22;4164;49.844;8.830;2023-03-13T09:04:35;13.40;99.90
8248;DHT22;4164;49.844;8.830;2023-03-13T09:07:01;13.50;99.90
8248;DHT22;4164;49.844;8.830;2023-03-13T09:09:26;13.70;99.90
8248;DHT22;4164;49.844;8.830;2023-03-13T09:11:52;13.70;99.90
8248;DHT22;4164;49.844;8.830;2023-03-13T09:14:18;13.70;99.90
8248;DHT22;4164;49.844;8.830;2023-03-13T09:16:43;13.70;99.90
8248;DHT22;4164;49.844;8.830;2023-03-13T09:19:10;13.70;99.90
8248;DHT22;4164;49.844;8.830;2023-03-13T09:21:37;13.60;99.90
8248;DHT22;4164;49.844;8.830;2023-03-13T09:24:03;13.70;99.90
8248;DHT22;4164;49.844;8.830;2023-03-13T09:26:29;13.80;99.90
8248;DHT22;4164;49.844;8.830;2023-03-13T09:28:55;13.90;99.90
8248;DHT22;4164;49.844;8.830;2023-03-13T09:31:30;13.80;99.90
8248;DHT22;4164;49.844;8.830;2023-03-13T09:33:56;13.80;99.90
8248;DHT22;4164;49.844;8.830;2023-03-13T09:36:22;13.80;99.90
8248;DHT22;4164;49.844;8.830;2023-03-13T09:38:55;14.00;99.90
8248;DHT22;4164;49.844;8.830;2023-03-13T09:41:33;14.00;99.90
8248;DHT22;4164;49.844;8.830;2023-03-13T09:44:28;14.20;99.90
8248;DHT22;4164;49.844;8.830;2023-03-13T09:47:19;14.20;99.90
8248;DHT22;4164;49.844;8.830;2023-03-13T09:49:53;14.50;99.90
8248;DHT22;4164;49.844;8.830;2023-03-13T09:52:38;14.60;99.90
8248;DHT22;4164;49.844;8.830;2023-03-13T09:55:20;14.60;99.90
8248;DHT22;4164;49.844;8.830;2023-03-13T09:57:55;14.60;99.90
8248;DHT22;4164;49.844;8.830;2023-03-13T10:00:34;14.70;99.90
8248;DHT22;4164;49.844;8.830;2023-03-13T10:05:37;14.80;99.90
8248;DHT22;4164;49.844;8.830;2023-03-13T10:10:56;14.90;99.90
8248;DHT22;4164;49.844;8.830;2023-03-13T10:13:59;14.90;99.90
8248;DHT22;4164;49.844;8.830;2023-03-13T10:19:06;15.10;99.90
8248;DHT22;4164;49.844;8.830;2023-03-13T10:21:35;15.40;99.90
8248;DHT22;4164;49.844;8.830;2023-03-13T10:24:16;16.00;99.90
8248;DHT22;4164;49.844;8.830;2023-03-13T10:26:42;15.80;99.90
8248;DHT22;4164;49.844;8.830;2023-03-13T10:29:27;16.00;99.90
8248;DHT22;4164;49.844;8.830;2023-03-13T10:32:01;16.00;99.90
8248;DHT22;4164;49.844;8.830;2023-03-13T10:34:30;15.70;99.90
8248;DHT22;4164;49.844;8.830;2023-03-13T10:37:11;15.60;99.90
8248;DHT22;4164;49.844;8.830;2023-03-13T10:39:38;15.30;99.90
8248;DHT22;4164;49.844;8.830;2023-03-13T10:42:20;15.10;99.90
8248;DHT22;4164;49.844;8.830;2023-03-13T10:44:46;15.20;99.90
8248;DHT22;4164;49.844;8.830;2023-03-13T10:47:13;15.20;99.90
8248;DHT22;4164;49.844;8.830;2023-03-13T10:49:50;15.30;99.90
8248;DHT22;4164;49.844;8.830;2023-03-13T10:52:50;15.30;99.90
8248;DHT22;4164;49.844;8.830;2023-03-13T10:55:22;15.30;99.90
8248;DHT22;4164;49.844;8.830;2023-03-13T10:58:00;15.00;99.90
8248;DHT22;4164;49.844;8.830;2023-03-13T11:00:37;14.80;99.90
8248;DHT22;4164;49.844;8.830;2023-03-13T11:05:40;15.20;99.90
8248;DHT22;4164;49.844;8.830;2023-03-13T11:08:20;15.90;99.90
8248;DHT22;4164;49.844;8.830;2023-03-13T11:10:55;16.00;99.90
8248;DHT22;4164;49.844;8.830;2023-03-13T11:13:33;15.80;99.90
8248;DHT22;4164;49.844;8.830;2023-03-13T11:16:20;15.60;99.90
8248;DHT22;4164;49.844;8.830;2023-03-13T11:18:56;15.60;99.90
8248;DHT22;4164;49.844;8.830;2023-03-13T11:24:27;16.30;99.90
8248;DHT22;4164;49.844;8.830;2023-03-13T11:27:11;16.10;99.90
8248;DHT22;4164;49.844;8.830;2023-03-13T11:35:10;16.10;99.90
8248;DHT22;4164;49.844;8.830;2023-03-13T11:37:40;16.60;99.90
8248;DHT22;4164;49.844;8.830;2023-03-13T11:40:35;16.60;99.90
8248;DHT22;4164;49.844;8.830;2023-03-13T11:43:16;16.40;99.90
8248;DHT22;4164;49.844;8.830;2023-03-13T11:46:32;16.40;99.90
8248;DHT22;4164;49.844;8.830;2023-03-13T11:54:29;16.10;99.90
8248;DHT22;4164;49.844;8.830;2023-03-13T11:57:11;16.30;99.90
8248;DHT22;4164;49.844;8.830;2023-03-13T12:05:42;17.30;99.90
8248;DHT22;4164;49.844;8.830;2023-03-13T12:08:16;17.30;99.90
8248;DHT22;4164;49.844;8.830;2023-03-13T12:14:12;17.10;99.90
8248;DHT22;4164;49.844;8.830;2023-03-13T12:16:47;16.90;99.90
8248;DHT22;4164;49.844;8.830;2023-03-13T12:19:19;16.80;99.90
8248;DHT22;4164;49.844;8.830;2023-03-13T12:21:49;17.30;99.90
8248;DHT22;4164;49.844;8.830;2023-03-13T12:24:39;19.40;99.90
8248;DHT22;4164;49.844;8.830;2023-03-13T12:30:03;19.40;99.90
8248;DHT22;4164;49.844;8.830;2023-03-13T12:33:01;18.20;99.90
8248;DHT22;4164;49.844;8.830;2023-03-13T12:35:30;18.30;99.90
8248;DHT22;4164;49.844;8.830;2023-03-13T12:38:22;21.40;99.90
8248;DHT22;4164;49.844;8.830;2023-03-13T12:41:12;22.80;99.90
8248;DHT22;4164;49.844;8.830;2023-03-13T12:43:42;24.40;99.90
8248;DHT22;4164;49.844;8.830;2023-03-13T12:46:18;25.90;98.00
8248;DHT22;4164;49.844;8.830;2023-03-13T12:49:09;26.00;94.90
8248;DHT22;4164;49.844;8.830;2023-03-13T12:59:59;19.60;99.90
8248;DHT22;4164;49.844;8.830;2023-03-13T13:02:29;19.00;99.90
8248;DHT22;4164;49.844;8.830;2023-03-13T13:05:00;18.90;99.90
8248;DHT22;4164;49.844;8.830;2023-03-13T13:07:34;18.50;99.90
8248;DHT22;4164;49.844;8.830;2023-03-13T13:12:29;18.20;99.90
8248;DHT22;4164;49.844;8.830;2023-03-13T13:15:03;18.20;99.90
8248;DHT22;4164;49.844;8.830;2023-03-13T13:22:50;17.90;99.90
8248;DHT22;4164;49.844;8.830;2023-03-13T13:32:46;18.00;99.90
8248;DHT22;4164;49.844;8.830;2023-03-13T13:35:34;18.10;99.90
8248;DHT22;4164;49.844;8.830;2023-03-13T13:43:30;23.00;99.90
8248;DHT22;4164;49.844;8.830;2023-03-13T13:46:22;24.50;98.70
8248;DHT22;4164;49.844;8.830;2023-03-13T13:49:12;24.40;96.40
8248;DHT22;4164;49.844;8.830;2023-03-13T13:51:40;24.10;96.10
8248;DHT22;4164;49.844;8.830;2023-03-13T13:54:51;23.70;95.80
8248;DHT22;4164;49.844;8.830;2023-03-13T13:57:22;22.00;97.40
8248;DHT22;4164;49.844;8.830;2023-03-13T13:59:55;21.40;98.60
8248;DHT22;4164;49.844;8.830;2023-03-13T14:02:33;21.30;98.70
8248;DHT22;4164;49.844;8.830;2023-03-13T14:12:55;20.40;99.30
8248;DHT22;4164;49.844;8.830;2023-03-13T14:15:29;19.80;99.90
8248;DHT22;4164;49.844;8.830;2023-03-13T14:18:11;19.80;99.90
8248;DHT22;4164;49.844;8.830;2023-03-13T14:20:50;19.90;99.90
8248;DHT22;4164;49.844;8.830;2023-03-13T14:23:38;19.80;99.90
8248;DHT22;4164;49.844;8.830;2023-03-13T14:26:18;19.70;99.90
8248;DHT22;4164;49.844;8.830;2023-03-13T14:28:49;19.60;99.90
8248;DHT22;4164;49.844;8.830;2023-03-13T14:31:31;19.50;99.90
8248;DHT22;4164;49.844;8.830;2023-03-13T14:33:59;19.40;99.90
8248;DHT22;4164;49.844;8.830;2023-03-13T14:36:25;19.20;99.90
8248;DHT22;4164;49.844;8.830;2023-03-13T14:38:59;19.10;99.90
8248;DHT22;4164;49.844;8.830;2023-03-13T14:41:35;19.10;99.90
8248;DHT22;4164;49.844;8.830;2023-03-13T14:44:04;19.20;99.90
8248;DHT22;4164;49.844;8.830;2023-03-13T14:46:33;19.40;99.90
8248;DHT22;4164;49.844;8.830;2023-03-13T14:49:17;19.00;99.90
8248;DHT22;4164;49.844;8.830;2023-03-13T14:51:44;19.00;99.90
8248;DHT22;4164;49.844;8.830;2023-03-13T14:54:31;19.10;99.90
8248;DHT22;4164;49.844;8.830;2023-03-13T14:57:15;19.00;99.90
8248;DHT22;4164;49.844;8.830;2023-03-13T14:59:42;18.80;99.90
8248;DHT22;4164;49.844;8.830;2023-03-13T15:04:58;18.80;99.90
8248;DHT22;4164;49.844;8.830;2023-03-13T15:07:55;18.70;99.90
8248;DHT22;4164;49.844;8.830;2023-03-13T15:12:49;18.70;99.90
8248;DHT22;4164;49.844;8.830;2023-03-13T15:15:15;18.70;99.90
8248;DHT22;4164;49.844;8.830;2023-03-13T15:17:41;18.60;99.90
8248;DHT22;4164;49.844;8.830;2023-03-13T15:20:11;18.50;99.90
8248;DHT22;4164;49.844;8.830;2023-03-13T15:22:39;18.50;99.90
8248;DHT22;4164;49.844;8.830;2023-03-13T15:25:17;18.40;99.90
8248;DHT22;4164;49.844;8.830;2023-03-13T15:27:43;18.30;99.90
8248;DHT22;4164;49.844;8.830;2023-03-13T15:30:17;18.30;99.90
8248;DHT22;4164;49.844;8.830;2023-03-13T15:32:43;18.30;99.90
8248;DHT22;4164;49.844;8.830;2023-03-13T15:35:27;18.30;99.90
8248;DHT22;4164;49.844;8.830;2023-03-13T15:37:58;18.30;99.90
8248;DHT22;4164;49.844;8.830;2023-03-13T15:40:24;18.40;99.90
8248;DHT22;4164;49.844;8.830;2023-03-13T15:42:51;18.30;99.90
8248;DHT22;4164;49.844;8.830;2023-03-13T15:45:17;18.20;99.90
8248;DHT22;4164;49.844;8.830;2023-03-13T15:47:43;18.20;99.90
8248;DHT22;4164;49.844;8.830;2023-03-13T15:50:12;18.10;99.90
8248;DHT22;4164;49.844;8.830;2023-03-13T15:52:38;18.20;99.90
8248;DHT22;4164;49.844;8.830;2023-03-13T15:55:04;18.10;99.90
8248;DHT22;4164;49.844;8.830;2023-03-13T15:57:32;17.20;99.90
8248;DHT22;4164;49.844;8.830;2023-03-13T15:59:58;11.90;99.90
8248;DHT22;4164;49.844;8.830;2023-03-13T16:02:23;7.50;99.90
8248;DHT22;4164;49.844;8.830;2023-03-13T16:04:50;8.40;99.90
8248;DHT22;4164;49.844;8.830;2023-03-13T16:07:18;8.90;99.90
8248;DHT22;4164;49.844;8.830;2023-03-13T16:09:45;8.50;99.90
8248;DHT22;4164;49.844;8.830;2023-03-13T16:12:11;8.60;99.90
8248;DHT22;4164;49.844;8.830;2023-03-13T16:14:37;8.60;99.90
8248;DHT22;4164;49.844;8.830;2023-03-13T16:17:14;8.80;99.90
8248;DHT22;4164;49.844;8.830;2023-03-13T16:19:40;9.00;99.90
8248;DHT22;4164;49.844;8.830;2023-03-13T16:22:05;9.20;99.90
8248;DHT22;4164;49.844;8.830;2023-03-13T16:24:31;9.30;99.90
8248;DHT22;4164;49.844;8.830;2023-03-13T16:26:56;9.50;99.90
8248;DHT22;4164;49.844;8.830;2023-03-13T16:29:22;9.70;99.90
8248;DHT22;4164;49.844;8.830;2023-03-13T16:31:48;9.80;99.90
8248;DHT22;4164;49.844;8.830;2023-03-13T16:34:13;10.00;99.90
8248;DHT22;4164;49.844;8.830;2023-03-13T16:36:39;10.20;99.90
8248;DHT22;4164;49.844;8.830;2023-03-13T16:39:07;10.50;99.90
8248;DHT22;4164;49.844;8.830;2023-03-13T16:41:36;10.60;99.90
8248;DHT22;4164;49.844;8.830;2023-03-13T16:44:02;10.60;99.90
8248;DHT22;4164;49.844;8.830;2023-03-13T16:46:37;10.60;99.90
8248;DHT22;4164;49.844;8.830;2023-03-13T16:49:04;10.70;99.90
8248;DHT22;4164;49.844;8.830;2023-03-13T16:51:30;10.80;99.90
8248;DHT22;4164;49.844;8.830;2023-03-13T16:53:57;11.00;99.90
8248;DHT22;4164;49.844;8.830;2023-03-13T16:56:34;11.10;99.90
8248;DHT22;4164;49.844;8.830;2023-03-13T16:59:01;11.10;99.90
8248;DHT22;4164;49.844;8.830;2023-03-13T17:01:27;11.10;99.90
8248;DHT22;4164;49.844;8.830;2023-03-13T17:03:54;11.20;99.90
8248;DHT22;4164;49.844;8.830;2023-03-13T17:06:25;11.20;99.90
8248;DHT22;4164;49.844;8.830;2023-03-13T17:08:51;11.20;99.90
8248;DHT22;4164;49.844;8.830;2023-03-13T17:11:18;11.30;99.90
8248;DHT22;4164;49.844;8.830;2023-03-13T17:13:46;11.20;99.90
8248;DHT22;4164;49.844;8.830;2023-03-13T17:16:23;11.20;99.90
8248;DHT22;4164;49.844;8.830;2023-03-13T17:18:50;11.30;99.90
8248;DHT22;4164;49.844;8.830;2023-03-13T17:21:18;11.30;99.90
8248;DHT22;4164;49.844;8.830;2023-03-13T17:23:44;11.30;99.90
8248;DHT22;4164;49.844;8.830;2023-03-13T17:28:41;11.30;99.90
8248;DHT22;4164;49.844;8.830;2023-03-13T17:31:09;11.40;99.90
8248;DHT22;4164;49.844;8.830;2023-03-13T17:33:34;11.40;99.90
8248;DHT22;4164;49.844;8.830;2023-03-13T17:36:00;11.50;99.90
8248;DHT22;4164;49.844;8.830;2023-03-13T17:38:25;11.40;99.90
8248;DHT22;4164;49.844;8.830;2023-03-13T17:40:51;11.40;99.90
8248;DHT22;4164;49.844;8.830;2023-03-13T17:43:18;11.40;99.90
8248;DHT22;4164;49.844;8.830;2023-03-13T17:45:44;11.40;99.90
8248;DHT22;4164;49.844;8.830;2023-03-13T17:48:11;11.40;99.90
8248;DHT22;4164;49.844;8.830;2023-03-13T17:50:37;11.40;99.90